PWSweather.com
Personal Weather Stations
Station Observations
WD02334
France, RosnySousBoisFR 93110

FranceRosnySousBoisFR 93110

Lat: 48.875661, Lon: 2.485932

Elevation: 88

Station Type: WMR100/OREGON SCIENTIFIC

http://boulletpascal.fr/index

Latest ConditionsUpdated 4:20:13 AM GMT+01:01 Saturday, Jul 30, 2016
Currently Today's Max Today's Min Today's Average
Temperature 65.1°F18.4°C 67.3°F19.6°C 65.1°F18.4°C 66.5°F19.2°C
Dew Point 48.1°F8.9°C 49.9°F9.9°C 47.9°F8.8°C 48.8°F9.3°C
Winds Calm Calm 1.2 mph ENE1.9 kmh ENE - 0.1 mph 0.2 kmh
Wind Gusts -- 1.2 mph1.9 kmh - -
Humidity 54% 54% 52% 53%
Pressure 29.94 in1013.9 mb 29.94 in1013.9 mb 29.94 in1013.9 mb -
Hour Temp Dew Point Humidity Winds Wind Gusts Pressure Precip Precip Rate Daily Precip Total
04:20 AM 65.1°F18.4°C 48.1°F8.9°C 54% Calm Calm -- 29.94 in1013.9 mb - 0.00 in0.0 mm 0.00 in0.0 mm
04:10 AM 65.3°F18.5°C 48.2°F9.0°C 54% Calm Calm -- 29.94 in1013.9 mb - 0.00 in0.0 mm 0.00 in0.0 mm
03:50 AM 65.5°F18.6°C 47.9°F8.8°C 53% Calm Calm -- 29.94 in1013.9 mb - 0.00 in0.0 mm 0.00 in0.0 mm
03:40 AM 65.7°F18.7°C 48.1°F8.9°C 53% Calm Calm -- 29.94 in1013.9 mb - 0.00 in0.0 mm 0.00 in0.0 mm
03:30 AM 65.8°F18.8°C 48.2°F9.0°C 53% Calm Calm 1.2 mph1.9 kmh 29.94 in1013.9 mb - 0.00 in0.0 mm 0.00 in0.0 mm
03:20 AM 65.8°F18.8°C 48.2°F9.0°C 53% Calm Calm -- 29.94 in1013.9 mb - 0.00 in0.0 mm 0.00 in0.0 mm
03:10 AM 65.9°F18.8°C 48.3°F9.1°C 53% 1.2 mph ENE1.9 kmh ENE 1.2 mph1.9 kmh 29.94 in1013.9 mb - 0.00 in0.0 mm 0.00 in0.0 mm
02:50 AM 66.4°F19.1°C 49.3°F9.6°C 54% Calm Calm 1.2 mph1.9 kmh 29.94 in1013.9 mb - 0.00 in0.0 mm 0.00 in0.0 mm
02:40 AM 66.6°F19.2°C 49.4°F9.7°C 54% Calm Calm -- 29.94 in1013.9 mb - 0.00 in0.0 mm 0.00 in0.0 mm
02:30 AM 66.7°F19.3°C 49.5°F9.7°C 54% Calm Calm -- 29.94 in1013.9 mb - 0.00 in0.0 mm 0.00 in0.0 mm
02:20 AM 66.8°F19.3°C 49.6°F9.8°C 54% Calm Calm -- 29.94 in1013.9 mb - 0.00 in0.0 mm 0.00 in0.0 mm
02:10 AM 66.9°F19.4°C 48.7°F9.3°C 52% Calm Calm -- 29.94 in1013.9 mb - 0.00 in0.0 mm 0.00 in0.0 mm
01:50 AM 66.9°F19.4°C 48.7°F9.3°C 52% Calm Calm 1.2 mph1.9 kmh 29.94 in1013.9 mb - 0.00 in0.0 mm 0.00 in0.0 mm
01:40 AM 67.1°F19.5°C 48.9°F9.4°C 52% Calm Calm -- 29.94 in1013.9 mb - 0.00 in0.0 mm 0.00 in0.0 mm
01:30 AM 67.1°F19.5°C 48.9°F9.4°C 52% Calm Calm -- 29.94 in1013.9 mb - 0.00 in0.0 mm 0.00 in0.0 mm
01:20 AM 67.1°F19.5°C 48.9°F9.4°C 52% Calm Calm -- 29.94 in1013.9 mb - 0.00 in0.0 mm 0.00 in0.0 mm
01:10 AM 67.1°F19.5°C 48.9°F9.4°C 52% Calm Calm -- 29.94 in1013.9 mb - 0.00 in0.0 mm 0.00 in0.0 mm
12:50 AM 67.1°F19.5°C 49.4°F9.7°C 53% Calm Calm -- 29.94 in1013.9 mb - 0.00 in0.0 mm 0.00 in0.0 mm
12:40 AM 67.1°F19.5°C 48.9°F9.4°C 52% Calm Calm -- 29.94 in1013.9 mb - 0.00 in0.0 mm 0.00 in0.0 mm
12:30 AM 67.1°F19.5°C 48.9°F9.4°C 52% Calm Calm 1.2 mph1.9 kmh 29.94 in1013.9 mb - 0.00 in0.0 mm 0.00 in0.0 mm
12:20 AM 67.1°F19.5°C 49.9°F9.9°C 54% Calm Calm 1.2 mph1.9 kmh 29.94 in1013.9 mb - 0.00 in0.0 mm 0.00 in0.0 mm
12:10 AM 67.3°F19.6°C 49.6°F9.8°C 53% Calm Calm -- 29.94 in1013.9 mb - 0.00 in0.0 mm 0.00 in0.0 mm